sensor_id;sensor_type;location;lat;lon;timestamp;P1;durP1;ratioP1;P2;durP2;ratioP2
43008;SDS011;28634;45.454;11.106;2022-08-21T00:00:13;4.65;;;2.03;;
43008;SDS011;28634;45.454;11.106;2022-08-21T00:03:03;4.65;;;2.00;;
43008;SDS011;28634;45.454;11.106;2022-08-21T00:05:33;4.05;;;1.83;;
43008;SDS011;28634;45.454;11.106;2022-08-21T00:08:04;5.07;;;2.10;;
43008;SDS011;28634;45.454;11.106;2022-08-21T00:10:31;5.05;;;2.00;;
43008;SDS011;28634;45.454;11.106;2022-08-21T00:13:00;3.75;;;1.92;;
43008;SDS011;28634;45.454;11.106;2022-08-21T00:15:30;3.83;;;1.90;;
43008;SDS011;28634;45.454;11.106;2022-08-21T00:17:59;3.30;;;2.00;;
43008;SDS011;28634;45.454;11.106;2022-08-21T00:20:26;6.65;;;2.10;;
43008;SDS011;28634;45.454;11.106;2022-08-21T00:22:54;5.72;;;2.33;;
43008;SDS011;28634;45.454;11.106;2022-08-21T00:25:22;3.80;;;1.90;;
43008;SDS011;28634;45.454;11.106;2022-08-21T00:27:51;5.43;;;2.33;;
43008;SDS011;28634;45.454;11.106;2022-08-21T00:30:19;3.08;;;1.92;;
43008;SDS011;28634;45.454;11.106;2022-08-21T00:32:49;3.30;;;1.73;;
43008;SDS011;28634;45.454;11.106;2022-08-21T00:35:18;3.55;;;1.77;;
43008;SDS011;28634;45.454;11.106;2022-08-21T00:37:48;2.72;;;1.70;;
43008;SDS011;28634;45.454;11.106;2022-08-21T00:40:16;3.15;;;1.98;;
43008;SDS011;28634;45.454;11.106;2022-08-21T00:42:46;4.10;;;2.15;;
43008;SDS011;28634;45.454;11.106;2022-08-21T00:45:19;2.90;;;1.90;;
43008;SDS011;28634;45.454;11.106;2022-08-21T00:47:50;4.38;;;1.88;;
43008;SDS011;28634;45.454;11.106;2022-08-21T00:50:18;4.28;;;2.08;;
43008;SDS011;28634;45.454;11.106;2022-08-21T00:52:47;4.88;;;2.00;;
43008;SDS011;28634;45.454;11.106;2022-08-21T00:55:19;4.40;;;1.60;;
43008;SDS011;28634;45.454;11.106;2022-08-21T00:57:50;4.85;;;2.25;;
43008;SDS011;28634;45.454;11.106;2022-08-21T01:00:24;4.03;;;1.83;;
43008;SDS011;28634;45.454;11.106;2022-08-21T01:02:55;3.78;;;1.80;;
43008;SDS011;28634;45.454;11.106;2022-08-21T01:05:23;2.85;;;2.00;;
43008;SDS011;28634;45.454;11.106;2022-08-21T01:07:51;4.78;;;2.00;;
43008;SDS011;28634;45.454;11.106;2022-08-21T01:10:18;4.57;;;1.88;;
43008;SDS011;28634;45.454;11.106;2022-08-21T01:12:50;3.13;;;1.70;;
43008;SDS011;28634;45.454;11.106;2022-08-21T01:15:19;3.97;;;1.90;;
43008;SDS011;28634;45.454;11.106;2022-08-21T01:17:49;3.60;;;1.90;;
43008;SDS011;28634;45.454;11.106;2022-08-21T01:20:16;4.25;;;1.98;;
43008;SDS011;28634;45.454;11.106;2022-08-21T01:22:43;3.88;;;1.80;;
43008;SDS011;28634;45.454;11.106;2022-08-21T01:25:12;4.95;;;1.90;;
43008;SDS011;28634;45.454;11.106;2022-08-21T01:27:41;3.05;;;1.80;;
43008;SDS011;28634;45.454;11.106;2022-08-21T01:32:38;4.40;;;2.17;;
43008;SDS011;28634;45.454;11.106;2022-08-21T01:35:06;3.72;;;2.00;;
43008;SDS011;28634;45.454;11.106;2022-08-21T01:37:35;5.10;;;2.13;;
43008;SDS011;28634;45.454;11.106;2022-08-21T01:40:03;3.35;;;1.92;;
43008;SDS011;28634;45.454;11.106;2022-08-21T01:42:32;5.28;;;2.15;;
43008;SDS011;28634;45.454;11.106;2022-08-21T01:45:00;6.53;;;2.10;;
43008;SDS011;28634;45.454;11.106;2022-08-21T01:47:27;4.13;;;1.92;;
43008;SDS011;28634;45.454;11.106;2022-08-21T01:49:54;2.95;;;1.88;;
43008;SDS011;28634;45.454;11.106;2022-08-21T01:52:21;3.10;;;1.73;;
43008;SDS011;28634;45.454;11.106;2022-08-21T01:54:48;3.58;;;1.90;;
43008;SDS011;28634;45.454;11.106;2022-08-21T01:57:20;4.85;;;1.90;;
43008;SDS011;28634;45.454;11.106;2022-08-21T01:59:51;3.28;;;1.90;;
43008;SDS011;28634;45.454;11.106;2022-08-21T02:02:19;4.22;;;1.83;;
43008;SDS011;28634;45.454;11.106;2022-08-21T02:04:46;4.30;;;2.40;;
43008;SDS011;28634;45.454;11.106;2022-08-21T02:07:13;3.38;;;1.90;;
43008;SDS011;28634;45.454;11.106;2022-08-21T02:09:41;3.67;;;1.80;;
43008;SDS011;28634;45.454;11.106;2022-08-21T02:12:10;2.45;;;1.65;;
43008;SDS011;28634;45.454;11.106;2022-08-21T02:14:37;3.78;;;1.70;;
43008;SDS011;28634;45.454;11.106;2022-08-21T02:17:05;3.70;;;1.80;;
43008;SDS011;28634;45.454;11.106;2022-08-21T02:19:35;4.15;;;1.92;;
43008;SDS011;28634;45.454;11.106;2022-08-21T02:22:09;4.10;;;2.00;;
43008;SDS011;28634;45.454;11.106;2022-08-21T02:24:37;5.82;;;1.80;;
43008;SDS011;28634;45.454;11.106;2022-08-21T02:27:20;5.15;;;1.85;;
43008;SDS011;28634;45.454;11.106;2022-08-21T02:29:52;5.47;;;1.70;;
43008;SDS011;28634;45.454;11.106;2022-08-21T02:32:21;4.28;;;1.65;;
43008;SDS011;28634;45.454;11.106;2022-08-21T02:34:48;2.70;;;1.80;;
43008;SDS011;28634;45.454;11.106;2022-08-21T02:37:16;3.42;;;1.70;;
43008;SDS011;28634;45.454;11.106;2022-08-21T02:39:43;3.72;;;1.48;;
43008;SDS011;28634;45.454;11.106;2022-08-21T02:42:10;3.47;;;1.70;;
43008;SDS011;28634;45.454;11.106;2022-08-21T02:44:37;2.30;;;1.60;;
43008;SDS011;28634;45.454;11.106;2022-08-21T02:47:04;2.67;;;1.50;;
43008;SDS011;28634;45.454;11.106;2022-08-21T02:49:31;3.58;;;1.70;;
43008;SDS011;28634;45.454;11.106;2022-08-21T02:51:58;2.22;;;1.38;;
43008;SDS011;28634;45.454;11.106;2022-08-21T02:54:25;4.03;;;1.75;;
43008;SDS011;28634;45.454;11.106;2022-08-21T02:56:52;2.30;;;1.55;;
43008;SDS011;28634;45.454;11.106;2022-08-21T02:59:20;4.07;;;1.50;;
43008;SDS011;28634;45.454;11.106;2022-08-21T03:01:47;2.58;;;1.55;;
43008;SDS011;28634;45.454;11.106;2022-08-21T03:04:14;4.55;;;1.50;;
43008;SDS011;28634;45.454;11.106;2022-08-21T03:06:41;2.78;;;1.60;;
43008;SDS011;28634;45.454;11.106;2022-08-21T03:09:09;3.88;;;1.70;;
43008;SDS011;28634;45.454;11.106;2022-08-21T03:11:36;3.17;;;1.50;;
43008;SDS011;28634;45.454;11.106;2022-08-21T03:14:03;2.17;;;1.45;;
43008;SDS011;28634;45.454;11.106;2022-08-21T03:16:31;4.13;;;1.65;;
43008;SDS011;28634;45.454;11.106;2022-08-21T03:19:00;3.22;;;1.30;;
43008;SDS011;28634;45.454;11.106;2022-08-21T03:21:28;6.82;;;1.80;;
43008;SDS011;28634;45.454;11.106;2022-08-21T03:23:55;2.30;;;1.25;;
43008;SDS011;28634;45.454;11.106;2022-08-21T03:26:22;5.60;;;1.63;;
43008;SDS011;28634;45.454;11.106;2022-08-21T03:28:53;2.85;;;1.60;;
43008;SDS011;28634;45.454;11.106;2022-08-21T03:31:20;5.95;;;1.50;;
43008;SDS011;28634;45.454;11.106;2022-08-21T03:33:47;3.78;;;1.50;;
43008;SDS011;28634;45.454;11.106;2022-08-21T03:36:15;2.45;;;1.48;;
43008;SDS011;28634;45.454;11.106;2022-08-21T03:38:42;6.40;;;1.88;;
43008;SDS011;28634;45.454;11.106;2022-08-21T03:41:09;3.40;;;1.75;;
43008;SDS011;28634;45.454;11.106;2022-08-21T03:43:36;2.63;;;1.50;;
43008;SDS011;28634;45.454;11.106;2022-08-21T03:46:06;6.00;;;1.88;;
43008;SDS011;28634;45.454;11.106;2022-08-21T03:48:34;3.40;;;1.50;;
43008;SDS011;28634;45.454;11.106;2022-08-21T03:51:02;3.58;;;1.65;;
43008;SDS011;28634;45.454;11.106;2022-08-21T03:53:30;3.10;;;1.50;;
43008;SDS011;28634;45.454;11.106;2022-08-21T03:55:57;3.33;;;2.47;;
43008;SDS011;28634;45.454;11.106;2022-08-21T03:58:25;2.92;;;1.75;;
43008;SDS011;28634;45.454;11.106;2022-08-21T04:00:56;4.15;;;1.80;;
43008;SDS011;28634;45.454;11.106;2022-08-21T04:03:25;3.38;;;1.73;;
43008;SDS011;28634;45.454;11.106;2022-08-21T04:05:53;3.40;;;1.80;;
43008;SDS011;28634;45.454;11.106;2022-08-21T04:08:20;3.75;;;2.20;;
43008;SDS011;28634;45.454;11.106;2022-08-21T04:10:48;3.03;;;1.70;;
43008;SDS011;28634;45.454;11.106;2022-08-21T04:13:19;5.85;;;1.50;;
43008;SDS011;28634;45.454;11.106;2022-08-21T04:15:47;3.90;;;1.45;;
43008;SDS011;28634;45.454;11.106;2022-08-21T04:18:14;4.70;;;1.77;;
43008;SDS011;28634;45.454;11.106;2022-08-21T04:20:42;4.80;;;1.63;;
43008;SDS011;28634;45.454;11.106;2022-08-21T04:23:16;2.72;;;1.50;;
43008;SDS011;28634;45.454;11.106;2022-08-21T04:25:50;2.67;;;1.52;;
43008;SDS011;28634;45.454;11.106;2022-08-21T04:28:18;3.08;;;1.63;;
43008;SDS011;28634;45.454;11.106;2022-08-21T04:30:47;5.00;;;1.55;;
43008;SDS011;28634;45.454;11.106;2022-08-21T04:33:15;3.15;;;1.67;;
43008;SDS011;28634;45.454;11.106;2022-08-21T04:35:42;2.85;;;1.30;;
43008;SDS011;28634;45.454;11.106;2022-08-21T04:38:09;4.78;;;1.48;;
43008;SDS011;28634;45.454;11.106;2022-08-21T04:40:36;5.05;;;1.60;;
43008;SDS011;28634;45.454;11.106;2022-08-21T04:43:05;5.00;;;1.70;;
43008;SDS011;28634;45.454;11.106;2022-08-21T04:45:36;3.25;;;1.58;;
43008;SDS011;28634;45.454;11.106;2022-08-21T04:48:05;3.85;;;1.60;;
43008;SDS011;28634;45.454;11.106;2022-08-21T04:50:43;3.58;;;1.63;;
43008;SDS011;28634;45.454;11.106;2022-08-21T04:53:13;2.90;;;1.38;;
43008;SDS011;28634;45.454;11.106;2022-08-21T04:56:42;3.50;;;1.60;;
43008;SDS011;28634;45.454;11.106;2022-08-21T04:58:58;2.95;;;1.50;;
43008;SDS011;28634;45.454;11.106;2022-08-21T05:01:30;2.95;;;1.58;;
43008;SDS011;28634;45.454;11.106;2022-08-21T05:04:01;2.78;;;1.60;;
43008;SDS011;28634;45.454;11.106;2022-08-21T05:06:31;2.45;;;1.48;;
43008;SDS011;28634;45.454;11.106;2022-08-21T05:09:02;2.75;;;1.60;;
43008;SDS011;28634;45.454;11.106;2022-08-21T05:11:30;6.65;;;1.88;;
43008;SDS011;28634;45.454;11.106;2022-08-21T05:13:57;3.65;;;1.48;;
43008;SDS011;28634;45.454;11.106;2022-08-21T05:16:25;3.92;;;1.67;;
43008;SDS011;28634;45.454;11.106;2022-08-21T05:19:03;2.70;;;1.40;;
43008;SDS011;28634;45.454;11.106;2022-08-21T05:21:32;4.40;;;1.55;;
43008;SDS011;28634;45.454;11.106;2022-08-21T05:24:00;4.78;;;1.70;;
43008;SDS011;28634;45.454;11.106;2022-08-21T05:26:28;6.85;;;1.52;;
43008;SDS011;28634;45.454;11.106;2022-08-21T05:28:56;2.92;;;1.40;;
43008;SDS011;28634;45.454;11.106;2022-08-21T05:31:23;2.78;;;1.40;;
43008;SDS011;28634;45.454;11.106;2022-08-21T05:33:50;2.45;;;1.40;;
43008;SDS011;28634;45.454;11.106;2022-08-21T05:36:21;4.72;;;1.40;;
43008;SDS011;28634;45.454;11.106;2022-08-21T05:38:48;4.40;;;1.67;;
43008;SDS011;28634;45.454;11.106;2022-08-21T05:41:15;4.85;;;1.60;;
43008;SDS011;28634;45.454;11.106;2022-08-21T05:43:42;4.63;;;1.70;;
43008;SDS011;28634;45.454;11.106;2022-08-21T05:46:09;3.05;;;1.55;;
43008;SDS011;28634;45.454;11.106;2022-08-21T05:48:37;4.10;;;1.67;;
43008;SDS011;28634;45.454;11.106;2022-08-21T05:51:06;4.00;;;1.40;;
43008;SDS011;28634;45.454;11.106;2022-08-21T05:53:35;2.90;;;1.70;;
43008;SDS011;28634;45.454;11.106;2022-08-21T05:56:03;5.43;;;1.50;;
43008;SDS011;28634;45.454;11.106;2022-08-21T05:58:32;6.63;;;1.50;;
43008;SDS011;28634;45.454;11.106;2022-08-21T06:01:00;3.08;;;1.65;;
43008;SDS011;28634;45.454;11.106;2022-08-21T06:03:30;5.13;;;1.85;;
43008;SDS011;28634;45.454;11.106;2022-08-21T06:06:00;4.15;;;1.45;;
43008;SDS011;28634;45.454;11.106;2022-08-21T06:08:29;2.22;;;1.50;;
43008;SDS011;28634;45.454;11.106;2022-08-21T06:10:58;3.67;;;1.55;;
43008;SDS011;28634;45.454;11.106;2022-08-21T06:13:26;4.30;;;1.65;;
43008;SDS011;28634;45.454;11.106;2022-08-21T06:16:07;1.98;;;1.30;;
43008;SDS011;28634;45.454;11.106;2022-08-21T06:18:41;1.98;;;1.35;;
43008;SDS011;28634;45.454;11.106;2022-08-21T06:21:08;3.92;;;1.73;;
43008;SDS011;28634;45.454;11.106;2022-08-21T06:23:35;5.43;;;1.80;;
43008;SDS011;28634;45.454;11.106;2022-08-21T06:26:03;2.67;;;1.40;;
43008;SDS011;28634;45.454;11.106;2022-08-21T06:28:32;2.47;;;1.50;;
43008;SDS011;28634;45.454;11.106;2022-08-21T06:30:59;4.28;;;1.70;;
43008;SDS011;28634;45.454;11.106;2022-08-21T06:33:27;3.53;;;1.70;;
43008;SDS011;28634;45.454;11.106;2022-08-21T06:35:58;3.80;;;1.67;;
43008;SDS011;28634;45.454;11.106;2022-08-21T06:38:25;4.10;;;1.60;;
43008;SDS011;28634;45.454;11.106;2022-08-21T06:40:54;1.90;;;1.55;;
43008;SDS011;28634;45.454;11.106;2022-08-21T06:43:23;4.30;;;1.80;;
43008;SDS011;28634;45.454;11.106;2022-08-21T06:46:05;3.15;;;1.70;;
43008;SDS011;28634;45.454;11.106;2022-08-21T06:48:33;4.38;;;1.80;;
43008;SDS011;28634;45.454;11.106;2022-08-21T06:51:00;5.30;;;1.73;;
43008;SDS011;28634;45.454;11.106;2022-08-21T06:53:27;4.85;;;1.80;;
43008;SDS011;28634;45.454;11.106;2022-08-21T06:55:54;2.85;;;1.60;;
43008;SDS011;28634;45.454;11.106;2022-08-21T06:58:21;5.63;;;1.80;;
43008;SDS011;28634;45.454;11.106;2022-08-21T07:00:49;4.53;;;1.77;;
43008;SDS011;28634;45.454;11.106;2022-08-21T07:03:22;2.95;;;1.67;;
43008;SDS011;28634;45.454;11.106;2022-08-21T07:05:51;2.83;;;1.80;;
43008;SDS011;28634;45.454;11.106;2022-08-21T07:08:19;3.60;;;2.00;;
43008;SDS011;28634;45.454;11.106;2022-08-21T07:10:47;5.13;;;1.90;;
43008;SDS011;28634;45.454;11.106;2022-08-21T07:13:15;5.35;;;2.15;;
43008;SDS011;28634;45.454;11.106;2022-08-21T07:15:43;3.67;;;2.03;;
43008;SDS011;28634;45.454;11.106;2022-08-21T07:18:11;6.05;;;2.63;;
43008;SDS011;28634;45.454;11.106;2022-08-21T07:20:39;4.90;;;2.50;;
43008;SDS011;28634;45.454;11.106;2022-08-21T07:23:09;5.90;;;2.50;;
43008;SDS011;28634;45.454;11.106;2022-08-21T07:25:38;5.03;;;2.55;;
43008;SDS011;28634;45.454;11.106;2022-08-21T07:28:06;4.18;;;2.38;;
43008;SDS011;28634;45.454;11.106;2022-08-21T07:30:33;5.05;;;3.28;;
43008;SDS011;28634;45.454;11.106;2022-08-21T07:33:00;7.70;;;4.18;;
43008;SDS011;28634;45.454;11.106;2022-08-21T07:35:27;7.55;;;4.82;;
43008;SDS011;28634;45.454;11.106;2022-08-21T07:37:54;6.20;;;4.43;;
43008;SDS011;28634;45.454;11.106;2022-08-21T07:40:21;8.18;;;4.85;;
43008;SDS011;28634;45.454;11.106;2022-08-21T07:42:49;9.32;;;4.63;;
43008;SDS011;28634;45.454;11.106;2022-08-21T07:45:19;8.05;;;4.82;;
43008;SDS011;28634;45.454;11.106;2022-08-21T07:47:47;8.80;;;4.10;;
43008;SDS011;28634;45.454;11.106;2022-08-21T07:50:20;10.63;;;3.95;;
43008;SDS011;28634;45.454;11.106;2022-08-21T07:52:47;7.15;;;2.80;;
43008;SDS011;28634;45.454;11.106;2022-08-21T07:55:17;6.78;;;2.78;;
43008;SDS011;28634;45.454;11.106;2022-08-21T07:57:46;6.47;;;2.53;;
43008;SDS011;28634;45.454;11.106;2022-08-21T08:00:16;5.70;;;2.30;;
43008;SDS011;28634;45.454;11.106;2022-08-21T08:02:48;6.07;;;2.20;;
43008;SDS011;28634;45.454;11.106;2022-08-21T08:05:17;3.65;;;2.45;;
43008;SDS011;28634;45.454;11.106;2022-08-21T08:07:46;5.68;;;1.75;;
43008;SDS011;28634;45.454;11.106;2022-08-21T08:10:14;5.38;;;1.95;;
43008;SDS011;28634;45.454;11.106;2022-08-21T08:12:42;3.60;;;1.73;;
43008;SDS011;28634;45.454;11.106;2022-08-21T08:15:14;3.53;;;1.88;;
43008;SDS011;28634;45.454;11.106;2022-08-21T08:17:43;3.47;;;1.75;;
43008;SDS011;28634;45.454;11.106;2022-08-21T08:20:11;4.30;;;1.70;;
43008;SDS011;28634;45.454;11.106;2022-08-21T08:22:39;2.30;;;1.45;;
43008;SDS011;28634;45.454;11.106;2022-08-21T08:25:08;3.75;;;1.67;;
43008;SDS011;28634;45.454;11.106;2022-08-21T08:27:36;5.55;;;1.70;;
43008;SDS011;28634;45.454;11.106;2022-08-21T08:30:05;3.40;;;1.67;;
43008;SDS011;28634;45.454;11.106;2022-08-21T08:32:34;2.75;;;1.60;;
43008;SDS011;28634;45.454;11.106;2022-08-21T08:35:01;4.80;;;1.50;;
43008;SDS011;28634;45.454;11.106;2022-08-21T08:37:29;4.05;;;1.67;;
43008;SDS011;28634;45.454;11.106;2022-08-21T08:39:59;3.90;;;1.65;;
43008;SDS011;28634;45.454;11.106;2022-08-21T08:42:31;4.68;;;1.90;;
43008;SDS011;28634;45.454;11.106;2022-08-21T08:45:02;3.05;;;1.67;;
43008;SDS011;28634;45.454;11.106;2022-08-21T08:47:38;2.88;;;1.77;;
43008;SDS011;28634;45.454;11.106;2022-08-21T08:50:13;2.73;;;1.60;;
43008;SDS011;28634;45.454;11.106;2022-08-21T08:52:52;2.75;;;1.52;;
43008;SDS011;28634;45.454;11.106;2022-08-21T08:55:33;4.25;;;2.00;;
43008;SDS011;28634;45.454;11.106;2022-08-21T08:58:03;4.45;;;1.73;;
43008;SDS011;28634;45.454;11.106;2022-08-21T09:00:31;5.13;;;1.90;;
43008;SDS011;28634;45.454;11.106;2022-08-21T09:02:59;3.60;;;1.60;;
43008;SDS011;28634;45.454;11.106;2022-08-21T09:05:30;2.25;;;1.55;;
43008;SDS011;28634;45.454;11.106;2022-08-21T09:14:14;4.43;;;1.75;;
43008;SDS011;28634;45.454;11.106;2022-08-21T09:16:57;3.03;;;1.70;;
43008;SDS011;28634;45.454;11.106;2022-08-21T09:27:34;3.78;;;1.88;;
43008;SDS011;28634;45.454;11.106;2022-08-21T09:30:04;3.08;;;1.90;;
43008;SDS011;28634;45.454;11.106;2022-08-21T09:32:34;2.53;;;1.50;;
43008;SDS011;28634;45.454;11.106;2022-08-21T09:35:14;5.00;;;1.80;;
43008;SDS011;28634;45.454;11.106;2022-08-21T09:37:50;4.47;;;1.70;;
43008;SDS011;28634;45.454;11.106;2022-08-21T09:45:38;3.40;;;1.90;;
43008;SDS011;28634;45.454;11.106;2022-08-21T09:48:15;4.97;;;2.05;;
43008;SDS011;28634;45.454;11.106;2022-08-21T09:50:46;3.22;;;1.65;;
43008;SDS011;28634;45.454;11.106;2022-08-21T09:53:24;3.13;;;1.70;;
43008;SDS011;28634;45.454;11.106;2022-08-21T09:56:04;2.83;;;1.70;;
43008;SDS011;28634;45.454;11.106;2022-08-21T09:59:11;5.05;;;2.10;;
43008;SDS011;28634;45.454;11.106;2022-08-21T10:01:46;6.53;;;2.47;;
43008;SDS011;28634;45.454;11.106;2022-08-21T10:04:36;3.42;;;2.05;;
43008;SDS011;28634;45.454;11.106;2022-08-21T10:09:42;5.80;;;1.83;;
43008;SDS011;28634;45.454;11.106;2022-08-21T10:17:33;3.03;;;1.67;;
43008;SDS011;28634;45.454;11.106;2022-08-21T10:20:07;3.60;;;1.60;;
43008;SDS011;28634;45.454;11.106;2022-08-21T10:25:52;2.63;;;1.65;;
43008;SDS011;28634;45.454;11.106;2022-08-21T10:28:44;3.17;;;1.88;;
43008;SDS011;28634;45.454;11.106;2022-08-21T10:31:18;3.35;;;1.55;;
43008;SDS011;28634;45.454;11.106;2022-08-21T10:37:08;2.90;;;1.67;;
43008;SDS011;28634;45.454;11.106;2022-08-21T10:42:54;2.85;;;1.75;;
43008;SDS011;28634;45.454;11.106;2022-08-21T10:45:52;2.33;;;1.58;;
43008;SDS011;28634;45.454;11.106;2022-08-21T10:48:28;2.78;;;1.70;;
43008;SDS011;28634;45.454;11.106;2022-08-21T10:51:06;3.65;;;1.70;;
43008;SDS011;28634;45.454;11.106;2022-08-21T11:01:54;3.70;;;1.70;;
43008;SDS011;28634;45.454;11.106;2022-08-21T11:04:45;3.33;;;1.70;;
43008;SDS011;28634;45.454;11.106;2022-08-21T11:09:45;2.97;;;1.50;;
43008;SDS011;28634;45.454;11.106;2022-08-21T11:12:24;3.05;;;1.30;;
43008;SDS011;28634;45.454;11.106;2022-08-21T11:18:10;2.03;;;1.40;;
43008;SDS011;28634;45.454;11.106;2022-08-21T11:23:33;2.20;;;1.40;;
43008;SDS011;28634;45.454;11.106;2022-08-21T11:26:10;3.97;;;1.70;;
43008;SDS011;28634;45.454;11.106;2022-08-21T11:31:37;1.90;;;1.20;;
43008;SDS011;28634;45.454;11.106;2022-08-21T11:34:17;3.70;;;1.60;;
43008;SDS011;28634;45.454;11.106;2022-08-21T11:42:50;2.85;;;1.30;;
43008;SDS011;28634;45.454;11.106;2022-08-21T11:45:35;5.90;;;1.40;;
43008;SDS011;28634;45.454;11.106;2022-08-21T11:51:09;3.65;;;1.30;;
43008;SDS011;28634;45.454;11.106;2022-08-21T11:53:43;2.00;;;1.35;;
43008;SDS011;28634;45.454;11.106;2022-08-21T11:56:53;2.72;;;1.20;;
43008;SDS011;28634;45.454;11.106;2022-08-21T11:59:21;2.63;;;1.30;;
43008;SDS011;28634;45.454;11.106;2022-08-21T12:01:52;2.33;;;1.30;;
43008;SDS011;28634;45.454;11.106;2022-08-21T12:04:31;1.80;;;1.23;;
43008;SDS011;28634;45.454;11.106;2022-08-21T12:07:11;2.38;;;1.30;;
43008;SDS011;28634;45.454;11.106;2022-08-21T12:09:50;1.95;;;1.20;;
43008;SDS011;28634;45.454;11.106;2022-08-21T12:12:25;3.28;;;1.23;;
43008;SDS011;28634;45.454;11.106;2022-08-21T12:23:24;3.67;;;1.52;;
43008;SDS011;28634;45.454;11.106;2022-08-21T12:29:02;3.53;;;1.30;;
43008;SDS011;28634;45.454;11.106;2022-08-21T12:31:46;2.42;;;1.08;;
43008;SDS011;28634;45.454;11.106;2022-08-21T12:34:16;2.55;;;1.40;;
43008;SDS011;28634;45.454;11.106;2022-08-21T12:36:49;1.63;;;1.13;;
43008;SDS011;28634;45.454;11.106;2022-08-21T12:39:25;2.42;;;1.35;;
43008;SDS011;28634;45.454;11.106;2022-08-21T12:41:57;1.83;;;1.30;;
43008;SDS011;28634;45.454;11.106;2022-08-21T12:44:49;3.58;;;1.20;;
43008;SDS011;28634;45.454;11.106;2022-08-21T12:47:29;1.50;;;1.10;;
43008;SDS011;28634;45.454;11.106;2022-08-21T12:53:29;1.63;;;1.20;;
43008;SDS011;28634;45.454;11.106;2022-08-21T12:56:10;4.63;;;1.20;;
43008;SDS011;28634;45.454;11.106;2022-08-21T12:58:50;1.77;;;1.30;;
43008;SDS011;28634;45.454;11.106;2022-08-21T13:01:22;1.23;;;1.00;;
43008;SDS011;28634;45.454;11.106;2022-08-21T13:03:54;2.20;;;1.10;;
43008;SDS011;28634;45.454;11.106;2022-08-21T13:06:31;2.05;;;1.10;;
43008;SDS011;28634;45.454;11.106;2022-08-21T13:09:05;1.48;;;1.10;;
43008;SDS011;28634;45.454;11.106;2022-08-21T13:11:36;3.08;;;1.10;;
43008;SDS011;28634;45.454;11.106;2022-08-21T13:14:09;1.60;;;1.10;;
43008;SDS011;28634;45.454;11.106;2022-08-21T13:16:54;2.55;;;1.40;;
43008;SDS011;28634;45.454;11.106;2022-08-21T13:19:24;1.80;;;1.08;;
43008;SDS011;28634;45.454;11.106;2022-08-21T13:21:52;1.90;;;1.02;;
43008;SDS011;28634;45.454;11.106;2022-08-21T13:27:16;1.70;;;1.00;;
43008;SDS011;28634;45.454;11.106;2022-08-21T13:32:34;2.50;;;1.10;;
43008;SDS011;28634;45.454;11.106;2022-08-21T13:35:09;2.35;;;1.20;;
43008;SDS011;28634;45.454;11.106;2022-08-21T13:37:43;3.10;;;1.30;;
43008;SDS011;28634;45.454;11.106;2022-08-21T13:40:17;2.45;;;1.00;;
43008;SDS011;28634;45.454;11.106;2022-08-21T13:42:50;2.13;;;1.23;;
43008;SDS011;28634;45.454;11.106;2022-08-21T13:45:22;1.92;;;1.27;;
43008;SDS011;28634;45.454;11.106;2022-08-21T13:47:57;1.77;;;1.15;;
43008;SDS011;28634;45.454;11.106;2022-08-21T13:50:32;2.03;;;1.13;;
43008;SDS011;28634;45.454;11.106;2022-08-21T13:53:04;1.45;;;1.20;;
43008;SDS011;28634;45.454;11.106;2022-08-21T13:55:35;2.33;;;1.10;;
43008;SDS011;28634;45.454;11.106;2022-08-21T13:58:10;1.75;;;1.10;;
43008;SDS011;28634;45.454;11.106;2022-08-21T14:00:46;2.25;;;1.20;;
43008;SDS011;28634;45.454;11.106;2022-08-21T14:03:38;1.98;;;1.15;;
43008;SDS011;28634;45.454;11.106;2022-08-21T14:06:15;1.35;;;1.10;;
43008;SDS011;28634;45.454;11.106;2022-08-21T14:08:52;6.57;;;1.75;;
43008;SDS011;28634;45.454;11.106;2022-08-21T14:11:28;1.80;;;1.10;;
43008;SDS011;28634;45.454;11.106;2022-08-21T14:14:01;1.63;;;1.10;;
43008;SDS011;28634;45.454;11.106;2022-08-21T14:16:42;7.88;;;1.38;;
43008;SDS011;28634;45.454;11.106;2022-08-21T14:19:20;1.60;;;1.00;;
43008;SDS011;28634;45.454;11.106;2022-08-21T14:21:50;2.05;;;1.17;;
43008;SDS011;28634;45.454;11.106;2022-08-21T14:24:26;2.65;;;1.20;;
43008;SDS011;28634;45.454;11.106;2022-08-21T14:26:56;1.65;;;1.10;;
43008;SDS011;28634;45.454;11.106;2022-08-21T14:29:37;2.30;;;1.20;;
43008;SDS011;28634;45.454;11.106;2022-08-21T14:32:17;3.80;;;1.10;;
43008;SDS011;28634;45.454;11.106;2022-08-21T14:34:51;4.22;;;1.40;;
43008;SDS011;28634;45.454;11.106;2022-08-21T14:37:23;2.38;;;1.10;;
43008;SDS011;28634;45.454;11.106;2022-08-21T14:39:51;4.60;;;1.20;;
43008;SDS011;28634;45.454;11.106;2022-08-21T14:42:18;3.33;;;1.27;;
43008;SDS011;28634;45.454;11.106;2022-08-21T14:44:46;2.50;;;1.15;;
43008;SDS011;28634;45.454;11.106;2022-08-21T14:47:14;3.45;;;1.40;;
43008;SDS011;28634;45.454;11.106;2022-08-21T14:49:41;7.07;;;1.67;;
43008;SDS011;28634;45.454;11.106;2022-08-21T14:52:09;18.02;;;2.50;;
43008;SDS011;28634;45.454;11.106;2022-08-21T14:54:36;19.50;;;3.22;;
43008;SDS011;28634;45.454;11.106;2022-08-21T14:57:05;2.40;;;1.20;;
43008;SDS011;28634;45.454;11.106;2022-08-21T14:59:35;1.48;;;1.10;;
43008;SDS011;28634;45.454;11.106;2022-08-21T15:02:05;3.10;;;1.30;;
43008;SDS011;28634;45.454;11.106;2022-08-21T15:04:34;3.55;;;1.00;;
43008;SDS011;28634;45.454;11.106;2022-08-21T15:07:02;2.40;;;1.33;;
43008;SDS011;28634;45.454;11.106;2022-08-21T15:09:30;1.98;;;1.10;;
43008;SDS011;28634;45.454;11.106;2022-08-21T15:11:58;1.75;;;1.00;;
43008;SDS011;28634;45.454;11.106;2022-08-21T15:14:28;2.90;;;1.40;;
43008;SDS011;28634;45.454;11.106;2022-08-21T15:16:57;2.45;;;1.20;;
43008;SDS011;28634;45.454;11.106;2022-08-21T15:19:25;5.07;;;1.40;;
43008;SDS011;28634;45.454;11.106;2022-08-21T15:21:52;3.42;;;1.40;;
43008;SDS011;28634;45.454;11.106;2022-08-21T15:24:20;2.78;;;1.20;;
43008;SDS011;28634;45.454;11.106;2022-08-21T15:26:47;6.63;;;1.30;;
43008;SDS011;28634;45.454;11.106;2022-08-21T15:29:15;2.10;;;1.13;;
43008;SDS011;28634;45.454;11.106;2022-08-21T15:34:23;2.72;;;1.13;;
43008;SDS011;28634;45.454;11.106;2022-08-21T15:36:54;2.35;;;1.30;;
43008;SDS011;28634;45.454;11.106;2022-08-21T15:39:23;3.90;;;1.50;;
43008;SDS011;28634;45.454;11.106;2022-08-21T15:41:56;3.03;;;1.37;;
43008;SDS011;28634;45.454;11.106;2022-08-21T15:44:24;2.10;;;1.08;;
43008;SDS011;28634;45.454;11.106;2022-08-21T15:46:53;1.35;;;1.05;;
43008;SDS011;28634;45.454;11.106;2022-08-21T15:49:22;2.53;;;1.25;;
43008;SDS011;28634;45.454;11.106;2022-08-21T15:51:49;3.28;;;1.20;;
43008;SDS011;28634;45.454;11.106;2022-08-21T15:54:17;2.65;;;1.30;;
43008;SDS011;28634;45.454;11.106;2022-08-21T15:56:47;2.67;;;1.30;;
43008;SDS011;28634;45.454;11.106;2022-08-21T15:59:19;2.42;;;1.40;;
43008;SDS011;28634;45.454;11.106;2022-08-21T16:01:49;2.40;;;1.30;;
43008;SDS011;28634;45.454;11.106;2022-08-21T16:04:22;2.25;;;1.30;;
43008;SDS011;28634;45.454;11.106;2022-08-21T16:06:53;3.17;;;1.20;;
43008;SDS011;28634;45.454;11.106;2022-08-21T16:09:31;3.53;;;1.10;;
43008;SDS011;28634;45.454;11.106;2022-08-21T16:12:01;3.17;;;1.20;;
43008;SDS011;28634;45.454;11.106;2022-08-21T16:14:29;1.30;;;1.00;;
43008;SDS011;28634;45.454;11.106;2022-08-21T16:16:57;2.20;;;1.17;;
43008;SDS011;28634;45.454;11.106;2022-08-21T16:19:26;1.70;;;1.02;;
43008;SDS011;28634;45.454;11.106;2022-08-21T16:21:55;2.28;;;1.05;;
43008;SDS011;28634;45.454;11.106;2022-08-21T16:24:25;2.92;;;1.30;;
43008;SDS011;28634;45.454;11.106;2022-08-21T16:26:52;2.30;;;1.17;;